Time;durP1;ratioP1;P1;durP2;ratioP2;P2;SDS_P1;SDS_P2;PMS_P1;PMS_P2;Temp;Humidity;BMP_temperature;BMP_pressure;BME280_temperature;BME280_humidity;BME280_pressure;Samples;Min_cycle;Max_cycle;Signal;HPM_P1;HPM_P2
2023/04/19 00:01:03;;;;;;;7.00;3.50;;;;;;;9.26;64.86;99718.08;105749;1254;73891;-76
2023/04/19 00:03:31;;;;;;;5.40;3.30;;;;;;;9.27;64.67;99713.20;105852;1259;60559;-76
2023/04/19 00:06:01;;;;;;;5.10;3.10;;;;;;;9.28;64.90;99712.81;105831;1258;60446;-74
2023/04/19 00:08:29;;;;;;;4.50;3.30;;;;;;;9.28;64.79;99713.44;105785;1259;74592;-72
2023/04/19 00:10:57;;;;;;;6.60;3.80;;;;;;;9.28;66.28;99716.09;105912;1254;69654;-74
2023/04/19 00:13:26;;;;;;;6.40;3.70;;;;;;;9.27;66.43;99718.14;105679;1254;72945;-75
2023/04/19 00:15:54;;;;;;;4.30;3.00;;;;;;;9.25;66.37;99715.55;105834;1254;61361;-75
2023/04/19 00:18:22;;;;;;;6.20;3.80;;;;;;;9.24;66.85;99712.40;105793;1254;59979;-78
2023/04/19 00:20:50;;;;;;;8.80;3.50;;;;;;;9.25;68.47;99711.98;105624;1262;73925;-74
2023/04/19 00:23:20;;;;;;;6.50;3.50;;;;;;;9.35;68.04;99708.73;105891;1259;70540;-77
2023/04/19 00:25:48;;;;;;;10.20;3.60;;;;;;;9.43;67.82;99708.65;105719;1259;73364;-75
2023/04/19 00:28:16;;;;;;;9.20;3.70;;;;;;;9.44;68.29;99703.65;105958;1254;61687;-75
2023/04/19 00:30:44;;;;;;;6.40;3.50;;;;;;;9.44;68.80;99700.30;105862;1254;61226;-74
2023/04/19 00:33:12;;;;;;;7.20;3.90;;;;;;;9.41;69.25;99697.77;105863;1254;73154;-75
2023/04/19 00:35:41;;;;;;;5.40;3.40;;;;;;;9.34;69.09;99696.00;105864;1254;70621;-74
2023/04/19 00:38:09;;;;;;;5.80;3.40;;;;;;;9.30;68.25;99693.64;105793;1255;73853;-74
2023/04/19 00:40:38;;;;;;;4.60;3.40;;;;;;;9.27;68.41;99690.98;105862;1254;60581;-74
2023/04/19 00:43:06;;;;;;;4.90;3.10;;;;;;;9.23;68.07;99692.58;105886;1254;60533;-75
2023/04/19 00:45:35;;;;;;;4.70;3.50;;;;;;;9.19;68.09;99685.73;105702;1259;74151;-73
2023/04/19 00:48:04;;;;;;;5.80;3.60;;;;;;;9.14;67.88;99685.27;105724;1257;68456;-75
2023/04/19 00:50:34;;;;;;;7.40;3.60;;;;;;;9.09;67.60;99683.06;105852;1259;73883;-74
2023/04/19 00:53:02;;;;;;;8.50;4.00;;;;;;;9.05;67.35;99681.95;105953;1254;60516;-75
2023/04/19 00:55:31;;;;;;;5.80;3.90;;;;;;;9.01;68.21;99680.54;105883;1254;61008;-74
2023/04/19 00:57:59;;;;;;;6.10;3.60;;;;;;;8.95;69.21;99681.21;105704;1253;73754;-73
2023/04/19 01:00:27;;;;;;;7.20;3.50;;;;;;;8.87;69.47;99680.65;105989;1259;69190;-75
2023/04/19 01:02:55;;;;;;;6.30;3.90;;;;;;;8.92;69.67;99682.59;105836;1259;71687;-72
2023/04/19 01:05:24;;;;;;;6.60;3.60;;;;;;;8.98;68.97;99676.47;105652;1253;61049;-73
2023/04/19 01:07:52;;;;;;;5.50;3.30;;;;;;;8.96;68.48;99676.31;105970;1256;62003;-74
2023/04/19 01:10:20;;;;;;;7.70;4.00;;;;;;;8.94;68.85;99672.83;105934;1256;73782;-74
2023/04/19 01:12:50;;;;;;;6.30;3.50;;;;;;;8.96;69.86;99665.79;105980;1254;69382;-73
2023/04/19 01:15:18;;;;;;;6.20;3.60;;;;;;;8.96;70.09;99665.02;105931;1254;73304;-71
2023/04/19 01:17:49;;;;;;;6.20;3.80;;;;;;;8.94;70.39;99661.48;106068;1255;61394;-77
2023/04/19 01:20:19;;;;;;;6.00;3.70;;;;;;;8.93;70.98;99663.36;105911;1259;60462;-76
2023/04/19 01:22:47;;;;;;;5.80;3.60;;;;;;;8.92;71.50;99661.52;105934;1253;72958;-78
2023/04/19 01:25:15;;;;;;;5.00;3.50;;;;;;;8.91;72.20;99658.31;105945;1256;71454;-78
2023/04/19 01:27:43;;;;;;;9.00;3.90;;;;;;;8.97;71.48;99659.46;105862;1254;73614;-76
2023/04/19 01:30:11;;;;;;;4.90;3.50;;;;;;;9.03;71.68;99657.50;106010;1254;60514;-75
2023/04/19 01:32:40;;;;;;;6.00;3.80;;;;;;;9.01;71.62;99658.48;106123;1257;60908;-71
2023/04/19 01:35:10;;;;;;;8.90;4.60;;;;;;;8.98;71.36;99659.00;105835;1255;73422;-76
2023/04/19 01:37:39;;;;;;;7.20;3.90;;;;;;;8.93;71.47;99654.01;105992;1254;71312;-73
2023/04/19 01:40:10;;;;;;;6.10;3.80;;;;;;;8.86;70.95;99650.84;105973;1254;72423;-77
2023/04/19 01:42:38;;;;;;;6.20;4.00;;;;;;;8.81;70.70;99655.81;105927;1257;60555;-75
2023/04/19 01:45:07;;;;;;;6.30;4.00;;;;;;;8.75;70.54;99648.61;105697;1255;60517;-74
2023/04/19 01:47:35;;;;;;;7.40;4.00;;;;;;;8.69;70.53;99645.23;106083;1256;73453;-75
2023/04/19 01:50:03;;;;;;;9.10;7.70;;;;;;;8.62;70.18;99649.93;105748;1260;71533;-74
2023/04/19 01:52:32;;;;;;;10.90;7.40;;;;;;;8.55;69.82;99650.40;105852;1260;72854;-74
2023/04/19 01:55:00;;;;;;;13.60;9.00;;;;;;;8.46;69.51;99651.57;105751;1254;168836;-74
2023/04/19 01:58:34;;;;;;;11.80;8.50;;;;;;;8.37;69.46;99651.23;102991;1290;601044;-74
2023/04/19 02:01:02;;;;;;;13.50;9.90;;;;;;;8.28;69.61;99650.39;105206;1264;59375;-75
2023/04/19 02:03:32;;;;;;;12.20;8.20;;;;;;;8.21;69.38;99649.39;105273;1269;59126;-75
2023/04/19 02:06:00;;;;;;;14.40;10.70;;;;;;;8.14;69.58;99647.76;105262;1263;71024;-75
2023/04/19 02:08:29;;;;;;;10.00;8.00;;;;;;;8.17;69.82;99646.78;105995;1258;69506;-73
2023/04/19 02:10:57;;;;;;;8.20;6.10;;;;;;;8.19;69.30;99644.94;106103;1254;71723;-74
2023/04/19 02:13:25;;;;;;;13.10;6.90;;;;;;;8.14;69.41;99641.04;105947;1250;179049;-74
2023/04/19 02:15:53;;;;;;;7.90;5.80;;;;;;;8.08;69.57;99633.70;106316;1251;59414;-74
2023/04/19 02:18:22;;;;;;;8.00;5.70;;;;;;;8.03;69.84;99631.38;106417;1251;72467;-75
2023/04/19 02:20:50;;;;;;;8.80;5.50;;;;;;;7.98;69.71;99632.07;106191;1256;69806;-75
2023/04/19 02:23:20;;;;;;;7.80;4.50;;;;;;;7.93;69.93;99635.79;106408;1248;72652;-73
2023/04/19 02:25:48;;;;;;;9.50;4.90;;;;;;;7.87;69.92;99637.70;106098;1256;60063;-72
2023/04/19 02:28:17;;;;;;;8.70;5.30;;;;;;;7.82;69.90;99635.79;106407;1248;60545;-73
2023/04/19 02:30:45;;;;;;;7.70;4.90;;;;;;;7.76;69.82;99631.63;106501;1248;72533;-74
2023/04/19 02:33:13;;;;;;;8.50;4.40;;;;;;;7.70;70.01;99635.92;106571;1251;70224;-73
2023/04/19 02:35:41;;;;;;;6.60;4.60;;;;;;;7.64;70.41;99638.30;106377;1252;70948;-76
2023/04/19 02:38:10;;;;;;;8.10;4.40;;;;;;;7.58;70.48;99635.17;106493;1251;60442;-75
2023/04/19 02:40:38;;;;;;;8.50;4.30;;;;;;;7.62;70.36;99632.94;107058;1250;60760;-76
2023/04/19 02:43:06;;;;;;;8.90;4.30;;;;;;;7.68;70.38;99636.65;109697;1251;71244;-75
2023/04/19 02:45:36;;;;;;;9.20;5.40;;;;;;;7.66;70.53;99639.67;109809;1250;69413;-75
2023/04/19 02:48:04;;;;;;;8.60;5.80;;;;;;;7.63;70.95;99639.55;109800;1255;72623;-73
2023/04/19 02:50:32;;;;;;;9.80;7.80;;;;;;;7.61;70.81;99638.04;109777;1250;59413;-75
2023/04/19 02:53:00;;;;;;;13.50;9.30;;;;;;;7.59;70.95;99638.42;109729;1249;58111;-75
2023/04/19 02:55:29;;;;;;;10.80;9.00;;;;;;;7.57;71.00;99637.88;109860;1251;72075;-72
2023/04/19 02:58:10;;;;;;;13.60;11.90;;;;;;;7.55;71.03;99639.28;109829;1251;69307;-75
2023/04/19 03:00:43;;;;;;;14.60;11.20;;;;;;;7.53;71.19;99641.47;109683;1252;72741;-76
2023/04/19 03:03:14;;;;;;;12.40;11.00;;;;;;;7.52;71.13;99643.37;109815;1255;58446;-74
2023/04/19 03:05:42;;;;;;;13.80;11.20;;;;;;;7.51;71.53;99639.44;109877;1250;59258;-74
2023/04/19 03:08:10;;;;;;;10.50;8.80;;;;;;;7.59;71.41;99645.48;109835;1250;71567;-75
2023/04/19 03:10:58;;;;;;;11.10;8.30;;;;;;;7.68;71.03;99642.44;109519;1253;69171;-74
2023/04/19 03:13:27;;;;;;;9.40;8.00;;;;;;;7.65;71.27;99642.21;109525;1254;72705;-73
2023/04/19 03:15:55;;;;;;;15.30;7.70;;;;;;;7.63;71.54;99639.80;109416;1254;59408;-72
2023/04/19 03:18:23;;;;;;;9.80;7.20;;;;;;;7.62;71.86;99635.30;109334;1254;59093;-72
2023/04/19 03:20:53;;;;;;;12.40;7.20;;;;;;;7.63;72.40;99634.29;109363;1254;72466;-74
2023/04/19 03:23:21;;;;;;;9.50;6.60;;;;;;;7.63;72.99;99630.55;109506;1254;68553;-74
2023/04/19 03:25:50;;;;;;;8.20;6.50;;;;;;;7.60;73.42;99624.80;109259;1254;71441;-75
2023/04/19 03:28:50;;;;;;;9.50;6.10;;;;;;;7.59;73.79;99621.66;109431;1251;60280;-75
2023/04/19 03:31:18;;;;;;;7.90;6.00;;;;;;;7.69;73.72;99621.19;109735;1251;57957;-72
2023/04/19 03:33:49;;;;;;;12.80;7.00;;;;;;;7.75;73.65;99616.39;109786;1250;70871;-74
2023/04/19 03:36:18;;;;;;;11.10;7.10;;;;;;;7.73;74.20;99623.34;109757;1251;69295;-75
2023/04/19 03:38:46;;;;;;;8.80;6.50;;;;;;;7.71;74.62;99622.77;109764;1250;70846;-76
2023/04/19 03:41:23;;;;;;;12.10;7.00;;;;;;;7.73;75.02;99622.05;109786;1250;60039;-76
2023/04/19 03:44:09;;;;;;;12.00;7.40;;;;;;;7.76;75.37;99619.59;109766;1250;59163;-76
2023/04/19 03:46:37;;;;;;;7.90;5.90;;;;;;;7.79;75.05;99618.06;109885;1250;71775;-74
2023/04/19 03:49:05;;;;;;;7.90;6.30;;;;;;;7.82;75.20;99616.54;109806;1251;68095;-72
2023/04/19 03:51:34;;;;;;;17.70;8.30;;;;;;;7.88;74.59;99614.33;109560;1251;71399;-73
2023/04/19 03:54:02;;;;;;;8.30;6.10;;;;;;;8.07;74.01;99613.21;109736;1250;59718;-74
2023/04/19 03:56:31;;;;;;;11.70;7.80;;;;;;;8.23;74.03;99612.42;109803;1252;59254;-76
2023/04/19 03:58:59;;;;;;;10.80;7.90;;;;;;;8.32;73.79;99619.25;109701;1251;72043;-75
2023/04/19 04:01:28;;;;;;;9.60;7.70;;;;;;;8.42;73.85;99620.43;109726;1250;69357;-76
2023/04/19 04:03:56;;;;;;;11.70;7.00;;;;;;;8.54;73.92;99623.11;109644;1251;72295;-76
2023/04/19 04:06:26;;;;;;;10.70;7.20;;;;;;;8.71;74.40;99622.56;109789;1250;60042;-75
2023/04/19 04:08:55;;;;;;;8.90;7.20;;;;;;;8.91;74.31;99625.66;109736;1251;59342;-75
2023/04/19 04:11:25;;;;;;;9.60;6.80;;;;;;;9.06;74.11;99627.07;109790;1250;72467;-76
2023/04/19 04:13:55;;;;;;;8.10;6.50;;;;;;;9.13;73.20;99623.34;109855;1250;69629;-76
2023/04/19 04:16:26;;;;;;;12.60;7.10;;;;;;;9.19;73.08;99621.27;109799;1250;71741;-75
2023/04/19 04:18:55;;;;;;;8.40;5.40;;;;;;;9.29;72.49;99616.71;108746;1250;60915;-76
2023/04/19 04:21:25;;;;;;;9.90;6.20;;;;;;;9.50;72.35;99619.41;108068;1251;59194;-76
2023/04/19 04:23:56;;;;;;;8.80;5.50;;;;;;;9.68;71.60;99617.00;108397;1251;71403;-75
2023/04/19 04:26:32;;;;;;;8.80;5.20;;;;;;;9.70;70.12;99619.23;108669;1250;68825;-75
2023/04/19 04:29:22;;;;;;;7.20;5.50;;;;;;;9.66;70.03;99612.42;108047;1251;72855;-76
2023/04/19 04:31:51;;;;;;;9.20;6.00;;;;;;;9.66;70.28;99612.26;108361;1251;59233;-74
2023/04/19 04:34:23;;;;;;;10.00;5.10;;;;;;;9.76;70.47;99610.56;108213;1250;61059;-76
2023/04/19 04:36:57;;;;;;;7.90;5.10;;;;;;;9.92;69.77;99614.20;108462;1251;72771;-76
2023/04/19 04:39:25;;;;;;;5.70;4.90;;;;;;;10.03;69.28;99614.77;107996;1256;68436;-78
2023/04/19 04:41:56;;;;;;;9.20;5.50;;;;;;;10.11;69.43;99614.98;107966;1251;71486;-75
2023/04/19 04:44:24;;;;;;;9.60;5.50;;;;;;;10.18;68.30;99616.17;108165;1251;59455;-77
2023/04/19 04:46:53;;;;;;;10.20;5.40;;;;;;;10.23;67.88;99618.61;108284;1251;60298;-76
2023/04/19 04:49:25;;;;;;;9.40;5.60;;;;;;;10.28;68.10;99618.74;108226;1254;72901;-75
2023/04/19 04:51:53;;;;;;;9.60;5.80;;;;;;;10.34;67.56;99617.02;108273;1250;69498;-76
2023/04/19 04:54:21;;;;;;;8.20;5.70;;;;;;;10.39;67.18;99615.02;108000;1251;73856;-73
2023/04/19 04:56:50;;;;;;;7.20;5.50;;;;;;;10.42;66.51;99620.27;108125;1250;60361;-75
2023/04/19 04:59:18;;;;;;;9.80;5.10;;;;;;;10.45;65.64;99623.48;108037;1251;60268;-77
2023/04/19 05:01:47;;;;;;;8.10;4.90;;;;;;;10.47;65.19;99617.94;108099;1252;72074;-77
2023/04/19 05:04:16;;;;;;;13.90;4.80;;;;;;;10.49;64.53;99619.31;108597;1251;70165;-75
2023/04/19 05:06:45;;;;;;;7.00;4.80;;;;;;;10.50;63.67;99620.77;108430;1251;71850;-73
2023/04/19 05:09:19;;;;;;;11.80;5.30;;;;;;;10.51;63.26;99622.59;108162;1250;60582;-75
2023/04/19 05:11:47;;;;;;;9.50;4.60;;;;;;;10.51;62.87;99621.21;108123;1250;59646;-74
2023/04/19 05:14:15;;;;;;;7.80;5.20;;;;;;;10.49;62.26;99623.89;108318;1251;71861;-77
2023/04/19 05:16:44;;;;;;;8.80;4.70;;;;;;;10.47;62.15;99625.16;108640;1251;70203;-77
2023/04/19 05:19:12;;;;;;;8.90;4.50;;;;;;;10.48;61.68;99625.80;108955;1251;70634;-76
2023/04/19 05:21:45;;;;;;;7.50;4.90;;;;;;;10.48;61.46;99629.02;108818;1251;60257;-77
2023/04/19 05:24:14;;;;;;;11.30;4.20;;;;;;;10.49;61.30;99627.98;108994;1250;58080;-79
2023/04/19 05:26:43;;;;;;;9.20;5.10;;;;;;;10.54;61.19;99627.80;108765;1251;72966;-80
2023/04/19 05:29:11;;;;;;;9.10;4.80;;;;;;;10.59;60.82;99624.70;108488;1251;68992;-80
2023/04/19 05:31:51;;;;;;;9.40;4.90;;;;;;;10.66;61.13;99623.85;108359;1251;71675;-80
2023/04/19 05:34:42;;;;;;;7.60;5.00;;;;;;;10.73;60.98;99626.58;109304;1251;59493;-82
2023/04/19 05:37:12;;;;;;;9.90;4.40;;;;;;;10.79;60.95;99626.05;109248;1250;59839;-81
2023/04/19 05:39:42;;;;;;;7.10;4.00;;;;;;;10.88;60.59;99626.65;108232;1251;73387;-80
2023/04/19 05:42:12;;;;;;;9.30;4.60;;;;;;;10.96;60.34;99622.89;108227;1254;70415;-79
2023/04/19 05:44:40;;;;;;;8.40;4.60;;;;;;;11.04;60.63;99621.70;107689;1251;72862;-78
2023/04/19 05:47:09;;;;;;;7.40;4.30;;;;;;;11.09;59.89;99624.45;107806;1254;60129;-77
2023/04/19 05:50:02;;;;;;;8.70;5.00;;;;;;;11.12;60.30;99618.80;107776;1252;59634;-78
2023/04/19 05:52:34;;;;;;;7.60;4.60;;;;;;;11.19;60.41;99623.97;107458;1251;72275;-79
2023/04/19 05:55:04;;;;;;;8.90;5.00;;;;;;;11.28;60.92;99625.09;107751;1257;71541;-77
2023/04/19 05:57:35;;;;;;;9.10;4.70;;;;;;;11.37;60.74;99625.48;108178;1254;71132;-81
2023/04/19 06:00:04;;;;;;;9.30;4.50;;;;;;;11.43;60.33;99624.26;108478;1251;60682;-84
2023/04/19 06:02:45;;;;;;;10.90;4.90;;;;;;;11.50;59.84;99625.61;108237;1251;60324;-80
2023/04/19 06:05:14;;;;;;;8.70;4.60;;;;;;;11.55;59.51;99619.55;108494;1251;73152;-81
2023/04/19 06:07:43;;;;;;;9.30;4.40;;;;;;;11.60;59.27;99624.67;106752;1252;69000;-79
2023/04/19 06:10:26;;;;;;;;;;;;;;;11.64;59.57;99626.70;107385;1251;70893;-80
2023/04/19 06:13:16;;;;;;;7.90;4.40;;;;;;;11.67;59.65;99622.83;107313;1252;61685;-81
2023/04/19 06:15:45;;;;;;;7.50;4.40;;;;;;;11.73;59.62;99621.41;107795;1251;60139;-78
2023/04/19 06:18:13;;;;;;;8.50;5.30;;;;;;;11.80;59.40;99617.90;107232;1256;73306;-78
2023/04/19 06:20:46;;;;;;;9.50;5.00;;;;;;;11.88;58.81;99608.98;107021;1251;70745;-80
2023/04/19 06:23:16;;;;;;;8.60;4.70;;;;;;;11.94;58.56;99613.05;107854;1251;73684;-80
2023/04/19 06:25:47;;;;;;;8.40;4.50;;;;;;;11.99;58.35;99612.70;107568;1256;60434;-77
2023/04/19 06:28:16;;;;;;;8.60;4.00;;;;;;;12.03;58.36;99615.51;107353;1254;60431;-80
2023/04/19 06:30:44;;;;;;;11.00;4.50;;;;;;;12.05;58.11;99619.64;107209;1255;71876;-80
2023/04/19 06:33:12;;;;;;;10.80;4.00;;;;;;;12.07;58.13;99619.92;108446;1251;69944;-80
2023/04/19 06:35:41;;;;;;;9.00;4.20;;;;;;;12.08;57.53;99620.31;108370;1254;72970;-79
2023/04/19 06:38:09;;;;;;;9.40;3.80;;;;;;;12.11;57.71;99621.62;107458;1251;60509;-79
2023/04/19 06:40:38;;;;;;;9.40;4.30;;;;;;;12.13;57.48;99620.63;106664;1257;60273;-79
2023/04/19 06:43:06;;;;;;;10.10;4.20;;;;;;;12.14;57.45;99617.66;106396;1257;72685;-78
2023/04/19 06:45:35;;;;;;;8.50;3.90;;;;;;;12.13;57.42;99614.80;106464;1251;70547;-80
2023/04/19 06:48:04;;;;;;;5.50;3.90;;;;;;;12.14;58.03;99616.47;106613;1256;72687;-78
2023/04/19 06:50:32;;;;;;;10.30;4.60;;;;;;;12.16;57.90;99616.41;106200;1257;60558;-79
2023/04/19 06:53:00;;;;;;;7.80;4.50;;;;;;;12.17;58.11;99612.38;106879;1251;60442;-80
2023/04/19 06:55:32;;;;;;;8.80;3.90;;;;;;;12.19;57.98;99612.31;106826;1251;72084;-81
2023/04/19 06:58:00;;;;;;;6.30;3.80;;;;;;;12.23;57.96;99613.64;107519;1251;69121;-79
2023/04/19 07:00:30;;;;;;;11.90;4.90;;;;;;;12.29;58.27;99611.84;107914;1251;73300;-81
2023/04/19 07:02:59;;;;;;;10.70;4.40;;;;;;;12.36;57.98;99611.80;107469;1251;61080;-81
2023/04/19 07:05:29;;;;;;;11.00;4.40;;;;;;;12.43;58.26;99614.94;108209;1251;60335;-80
2023/04/19 07:07:57;;;;;;;9.00;4.10;;;;;;;12.51;58.24;99614.84;107705;1251;73486;-80
2023/04/19 07:10:25;;;;;;;13.60;4.40;;;;;;;12.59;57.96;99612.66;107754;1251;70432;-80
2023/04/19 07:12:54;;;;;;;9.00;5.20;;;;;;;12.67;57.08;99609.98;109062;1251;72268;-80
2023/04/19 07:15:22;;;;;;;11.80;4.50;;;;;;;12.71;57.17;99609.05;107954;1257;60450;-82
2023/04/19 07:17:51;;;;;;;9.40;5.00;;;;;;;12.78;57.62;99607.23;108118;1251;61688;-82
2023/04/19 07:20:20;;;;;;;10.20;4.20;;;;;;;12.86;57.95;99604.30;108334;1251;72411;-81
2023/04/19 07:22:48;;;;;;;13.50;4.60;;;;;;;12.97;57.34;99609.65;108351;1251;68726;-82
2023/04/19 07:25:17;;;;;;;5.40;4.20;;;;;;;13.07;57.28;99609.07;107746;1256;72769;-80
2023/04/19 07:27:45;;;;;;;6.40;4.40;;;;;;;13.18;57.08;99608.28;107116;1257;60351;-80
2023/04/19 07:30:15;;;;;;;13.00;4.80;;;;;;;13.27;57.31;99609.46;107852;1251;61457;-79
2023/04/19 07:32:45;;;;;;;9.10;4.10;;;;;;;13.36;56.85;99607.32;108145;1257;73395;-79
2023/04/19 07:35:13;;;;;;;15.40;5.10;;;;;;;13.43;56.72;99605.92;107422;1251;71569;-77
2023/04/19 07:37:42;;;;;;;9.50;4.20;;;;;;;13.49;56.88;99602.98;107164;1251;72616;-80
2023/04/19 07:40:12;;;;;;;11.60;4.90;;;;;;;13.55;56.66;99604.73;107717;1251;61304;-80
2023/04/19 07:42:41;;;;;;;12.00;4.20;;;;;;;13.60;56.53;99604.52;107594;1251;60040;-79
2023/04/19 07:45:10;;;;;;;15.90;5.20;;;;;;;13.66;56.37;99604.52;107006;1251;74107;-78
2023/04/19 07:47:38;;;;;;;14.80;4.70;;;;;;;13.71;56.44;99605.81;106742;1251;71543;-79
2023/04/19 07:50:08;;;;;;;9.70;4.00;;;;;;;13.77;56.72;99602.73;106545;1251;72965;-79
2023/04/19 07:52:36;;;;;;;13.90;4.00;;;;;;;13.85;56.49;99603.92;107188;1254;61553;-78
2023/04/19 07:55:05;;;;;;;6.40;4.10;;;;;;;13.93;56.55;99599.55;106695;1257;60685;-76
2023/04/19 07:57:34;;;;;;;8.90;4.10;;;;;;;14.01;56.85;99597.50;106610;1250;72141;-77
2023/04/19 08:00:03;;;;;;;12.70;4.20;;;;;;;14.10;56.29;99601.08;106627;1251;69803;-76
2023/04/19 08:02:43;;;;;;;10.00;3.40;;;;;;;14.22;55.26;99598.89;106682;1254;73431;-78
2023/04/19 08:05:16;;;;;;;12.70;4.30;;;;;;;14.29;55.33;99593.88;106537;1265;60294;-75
2023/04/19 08:07:45;;;;;;;9.50;4.00;;;;;;;14.36;55.27;99591.41;106633;1250;62330;-77
2023/04/19 08:10:13;;;;;;;10.70;3.60;;;;;;;14.44;55.33;99589.45;106556;1254;73502;-77
2023/04/19 08:12:42;;;;;;;11.90;4.30;;;;;;;14.53;55.42;99584.95;106483;1256;71204;-78
2023/04/19 08:15:32;;;;;;;11.00;4.30;;;;;;;14.66;55.31;99582.40;106557;1251;72252;-78
2023/04/19 08:18:04;;;;;;;10.90;4.00;;;;;;;14.78;55.36;99584.95;106708;1251;60671;-75
2023/04/19 08:20:32;;;;;;;12.80;4.30;;;;;;;14.91;54.97;99587.23;106380;1257;60314;-75
2023/04/19 08:23:02;;;;;;;13.00;3.60;;;;;;;15.03;54.71;99585.52;106137;1254;73887;-77
2023/04/19 08:25:41;;;;;;;10.30;3.50;;;;;;;15.15;54.81;99584.19;106408;1253;70584;-74
2023/04/19 08:28:10;;;;;;;11.00;3.60;;;;;;;15.29;54.96;99579.60;106263;1254;72600;-76
2023/04/19 08:30:39;;;;;;;9.20;4.70;;;;;;;15.43;54.49;99576.79;106329;1252;60728;-78
2023/04/19 08:33:07;;;;;;;12.30;3.90;;;;;;;15.58;54.31;99575.04;106180;1252;60431;-75
2023/04/19 08:35:39;;;;;;;21.40;4.40;;;;;;;15.71;53.95;99565.05;106356;1252;73974;-75
2023/04/19 08:38:08;;;;;;;14.30;4.30;;;;;;;15.84;54.06;99567.57;106255;1251;71597;-74
2023/04/19 08:40:40;;;;;;;12.20;4.00;;;;;;;15.98;54.02;99567.41;105922;1257;70907;-75
2023/04/19 08:43:09;;;;;;;10.60;3.20;;;;;;;16.10;53.28;99564.96;106217;1256;61247;-75
2023/04/19 08:45:37;;;;;;;12.20;3.70;;;;;;;16.23;52.81;99565.27;106096;1251;61011;-76
2023/04/19 08:48:05;;;;;;;15.90;4.80;;;;;;;16.34;53.13;99560.58;106115;1256;74829;-77
2023/04/19 08:50:34;;;;;;;13.00;3.10;;;;;;;16.43;52.24;99552.11;105913;1258;70723;-77
2023/04/19 08:53:16;;;;;;;17.60;4.60;;;;;;;16.55;52.71;99551.52;106007;1253;72029;-75
2023/04/19 08:55:57;;;;;;;10.50;3.70;;;;;;;16.70;52.10;99558.98;106229;1251;60971;-76
2023/04/19 08:58:44;;;;;;;11.20;4.00;;;;;;;16.88;51.33;99553.83;106323;1250;60459;-73
2023/04/19 09:01:15;;;;;;;15.70;3.80;;;;;;;17.00;50.67;99550.96;106224;1251;74953;-75
2023/04/19 09:04:01;;;;;;;11.40;4.10;;;;;;;17.12;50.75;99546.09;106146;1255;69684;-75
2023/04/19 09:06:50;;;;;;;13.80;4.10;;;;;;;17.30;50.64;99548.91;106141;1251;73075;-76
2023/04/19 09:09:22;;;;;;;19.60;4.40;;;;;;;17.47;50.24;99548.80;105966;1269;60875;-76
2023/04/19 09:12:16;;;;;;;12.30;3.90;;;;;;;17.69;49.44;99550.20;106065;1253;60382;-77
2023/04/19 09:14:46;;;;;;;10.40;3.50;;;;;;;17.95;49.46;99544.41;106286;1254;73669;-76
2023/04/19 09:17:17;;;;;;;17.70;3.70;;;;;;;18.32;48.13;99545.70;106199;1251;70448;-76
2023/04/19 09:19:46;;;;;;;19.70;4.10;;;;;;;18.69;47.21;99545.37;106054;1251;73270;-74
2023/04/19 09:22:15;;;;;;;17.20;3.90;;;;;;;19.04;45.94;99548.83;106250;1252;62231;-76
2023/04/19 09:24:43;;;;;;;24.90;4.20;;;;;;;19.39;45.12;99548.33;106234;1251;60472;-74
2023/04/19 09:27:15;;;;;;;21.70;4.70;;;;;;;19.70;44.06;99548.26;106210;1254;73071;-75
2023/04/19 09:29:52;;;;;;;17.50;4.20;;;;;;;19.96;43.88;99549.20;106108;1256;70823;-75
2023/04/19 09:32:20;;;;;;;20.40;4.70;;;;;;;20.26;43.51;99544.42;106356;1255;70845;-77
2023/04/19 09:34:58;;;;;;;13.80;3.50;;;;;;;20.53;43.71;99547.04;106319;1254;60505;-74
2023/04/19 09:37:27;;;;;;;15.30;4.00;;;;;;;20.85;43.28;99549.22;106216;1251;61190;-75
2023/04/19 09:39:58;;;;;;;18.60;3.60;;;;;;;21.18;42.67;99548.38;106047;1251;73793;-71
2023/04/19 09:42:45;;;;;;;14.30;3.80;;;;;;;21.52;41.89;99554.72;106174;1254;69511;-71
2023/04/19 09:45:16;;;;;;;22.70;4.50;;;;;;;21.95;41.37;99548.92;106296;1251;70858;-73
2023/04/19 09:48:07;;;;;;;19.90;4.00;;;;;;;22.40;40.34;99548.38;106201;1256;60399;-74
2023/04/19 09:50:50;;;;;;;16.40;4.10;;;;;;;22.82;39.06;99541.91;106169;1257;61131;-72
2023/04/19 09:53:28;;;;;;;20.20;5.50;;;;;;;23.18;38.69;99539.60;106401;1251;73517;-75
2023/04/19 09:55:57;;;;;;;20.00;4.60;;;;;;;23.41;38.63;99540.04;106299;1251;70544;-74
2023/04/19 09:58:31;;;;;;;18.50;4.30;;;;;;;23.61;38.72;99527.30;106205;1256;71156;-73
2023/04/19 10:01:18;;;;;;;15.30;3.70;;;;;;;23.70;38.37;99522.20;106155;1251;60543;-73
2023/04/19 10:03:48;;;;;;;14.40;3.80;;;;;;;23.75;38.89;99526.77;106043;1251;61461;-73
2023/04/19 10:06:17;;;;;;;21.90;4.60;;;;;;;23.81;38.35;99529.97;106184;1256;74621;-73
2023/04/19 10:08:49;;;;;;;12.10;3.90;;;;;;;23.78;38.20;99532.27;106153;1255;70600;-73
2023/04/19 10:11:21;;;;;;;21.70;4.10;;;;;;;23.72;38.39;99534.65;106052;1254;73691;-72
2023/04/19 10:13:51;;;;;;;17.60;4.20;;;;;;;23.69;38.35;99534.46;106127;1251;61320;-73
2023/04/19 10:16:20;;;;;;;20.60;4.80;;;;;;;23.67;38.65;99529.36;106235;1254;60428;-73
2023/04/19 10:18:48;;;;;;;17.30;4.60;;;;;;;23.69;38.59;99528.71;106079;1257;73878;-73
2023/04/19 10:21:18;;;;;;;23.10;4.40;;;;;;;23.66;38.49;99526.20;106043;1258;68979;-72
2023/04/19 10:23:46;;;;;;;18.00;4.40;;;;;;;23.48;38.48;99535.86;106101;1256;71812;-73
2023/04/19 10:26:14;;;;;;;28.50;6.90;;;;;;;23.24;38.61;99535.45;106129;1251;60453;-72
2023/04/19 10:28:43;;;;;;;27.30;5.10;;;;;;;22.96;38.96;99538.38;105985;1256;60559;-75
2023/04/19 10:31:14;;;;;;;29.80;5.50;;;;;;;22.72;39.09;99540.78;106081;1257;73864;-73
2023/04/19 10:33:43;;;;;;;20.10;4.20;;;;;;;22.52;39.20;99538.09;106156;1256;70828;-74
2023/04/19 10:36:13;;;;;;;19.90;4.60;;;;;;;22.38;39.59;99538.18;106069;1257;73063;-73
2023/04/19 10:38:44;;;;;;;25.40;4.90;;;;;;;22.46;39.32;99542.40;105990;1257;60492;-73
2023/04/19 10:41:16;;;;;;;13.00;4.60;;;;;;;22.63;39.18;99538.83;106000;1251;60371;-73
2023/04/19 10:43:47;;;;;;;23.90;5.40;;;;;;;22.90;38.75;99542.98;105952;1257;73183;-72
2023/04/19 10:46:21;;;;;;;29.80;6.20;;;;;;;23.16;38.43;99547.02;105907;1251;71593;-73
2023/04/19 10:48:53;;;;;;;16.30;4.20;;;;;;;23.46;38.62;99546.48;105961;1251;71430;-71
2023/04/19 10:51:26;;;;;;;22.70;5.10;;;;;;;23.92;37.93;99544.69;105921;1251;60431;-74
2023/04/19 10:53:56;;;;;;;26.00;6.10;;;;;;;24.46;37.70;99543.27;106035;1256;60424;-74
2023/04/19 10:56:33;;;;;;;18.40;4.80;;;;;;;25.04;36.75;99544.24;105952;1256;73973;-73
2023/04/19 11:01:36;;;;;;;19.50;4.70;;;;;;;25.75;35.50;99547.59;106105;1251;72845;-74
2023/04/19 11:04:06;;;;;;;23.90;4.90;;;;;;;25.85;35.17;99545.04;106150;1251;60849;-75
2023/04/19 11:06:36;;;;;;;19.20;5.80;;;;;;;25.93;35.02;99541.06;105942;1251;60597;-73
2023/04/19 11:09:06;;;;;;;23.70;5.40;;;;;;;25.74;35.36;99543.85;105910;1251;73133;-76
2023/04/19 11:11:35;;;;;;;16.10;4.40;;;;;;;25.50;35.38;99547.06;106198;1254;71720;-74
2023/04/19 11:14:04;;;;;;;15.30;4.20;;;;;;;25.25;35.83;99549.86;106151;1254;73649;-75
2023/04/19 11:16:32;;;;;;;17.10;4.30;;;;;;;25.19;36.07;99551.56;106110;1251;61064;-73
2023/04/19 11:19:16;;;;;;;21.00;4.80;;;;;;;25.25;35.79;99546.80;106115;1251;60707;-75
2023/04/19 11:21:45;;;;;;;22.20;4.90;;;;;;;25.25;35.88;99548.50;106131;1251;72918;-74
2023/04/19 11:24:17;;;;;;;31.50;5.10;;;;;;;25.11;36.11;99551.12;106023;1251;71108;-74
2023/04/19 11:26:46;;;;;;;22.60;4.80;;;;;;;24.86;36.13;99552.02;106053;1256;72212;-75
2023/04/19 11:29:15;;;;;;;16.30;5.30;;;;;;;24.53;36.68;99550.75;105997;1251;60552;-72
2023/04/19 11:31:45;;;;;;;27.90;5.70;;;;;;;24.26;36.85;99556.19;106026;1251;60533;-72
2023/04/19 11:34:13;;;;;;;21.20;4.80;;;;;;;23.98;37.21;99556.56;106232;1251;73337;-74
2023/04/19 11:36:51;;;;;;;26.30;6.10;;;;;;;23.78;37.56;99559.13;106046;1257;70641;-73
2023/04/19 11:39:20;;;;;;;25.10;5.60;;;;;;;23.67;37.67;99559.89;106106;1254;71754;-76
2023/04/19 11:41:48;;;;;;;26.50;5.70;;;;;;;23.68;37.65;99564.06;106092;1250;61333;-71
2023/04/19 11:44:19;;;;;;;30.00;6.50;;;;;;;23.67;37.28;99567.11;106261;1254;61240;-73